createdAt,value
2019-04-25T00:00:11.757Z,10.706482
2019-04-25T00:01:22.234Z,10.68634
2019-04-25T00:02:32.503Z,10.635986
2019-04-25T00:03:43.418Z,10.595703
2019-04-25T00:04:52.768Z,10.565491
2019-04-25T00:06:03.297Z,10.505066
2019-04-25T00:07:12.789Z,10.484924
2019-04-25T00:08:22.302Z,10.444641
2019-04-25T00:09:31.869Z,10.404358
2019-04-25T00:10:42.945Z,10.374146
2019-04-25T00:11:52.884Z,10.333862
2019-04-25T00:13:03.572Z,10.313721
2019-04-25T00:14:13.305Z,10.30365
2019-04-25T00:15:23.384Z,10.283508
2019-04-25T00:16:32.898Z,10.253296
2019-04-25T00:17:44.317Z,10.223083
2019-04-25T00:18:52.898Z,10.223083
2019-04-25T00:20:02.399Z,10.263367
2019-04-25T00:21:12.216Z,10.30365
2019-04-25T00:22:22.423Z,10.30365
2019-04-25T00:23:32.924Z,10.253296
2019-04-25T00:24:44.116Z,10.253296
2019-04-25T00:25:53.997Z,10.223083
2019-04-25T00:27:03.525Z,10.202942
2019-04-25T00:28:13.057Z,10.192871
2019-04-25T00:29:22.567Z,10.192871
2019-04-25T00:30:33.086Z,10.192871
2019-04-25T00:31:44.838Z,10.223083
2019-04-25T00:32:54.081Z,10.253296
2019-04-25T00:34:03.581Z,10.223083
2019-04-25T00:35:13.076Z,10.253296
2019-04-25T00:36:22.604Z,10.263367
2019-04-25T00:37:33.110Z,10.283508
2019-04-25T00:38:46.251Z,10.263367
2019-04-25T00:39:54.098Z,10.253296
2019-04-25T00:41:03.614Z,10.253296
2019-04-25T00:42:13.135Z,10.202942
2019-04-25T00:43:23.679Z,10.202942
2019-04-25T00:44:33.186Z,10.162659
2019-04-25T00:45:44.548Z,10.162659
2019-04-25T00:46:56.577Z,10.122375
2019-04-25T00:48:04.305Z,10.102234
2019-04-25T00:49:13.207Z,10.072021
2019-04-25T00:50:23.708Z,10.092163
2019-04-25T00:51:33.245Z,10.092163
2019-04-25T00:52:44.809Z,10.092163
2019-04-25T00:53:54.812Z,10.05188
2019-04-25T00:55:03.809Z,10.05188
2019-04-25T00:56:14.323Z,10.041809
2019-04-25T00:57:23.870Z,10.011597
2019-04-25T00:58:33.388Z,9.981384
2019-04-25T00:59:45.209Z,9.951172
2019-04-25T01:00:54.388Z,9.951172
2019-04-25T01:02:03.910Z,9.920959
2019-04-25T01:03:13.425Z,9.910889
2019-04-25T01:04:22.950Z,9.890747
2019-04-25T01:05:32.471Z,9.860535
2019-04-25T01:06:43.921Z,9.870605
2019-04-25T01:07:54.354Z,9.860535
2019-04-25T01:09:03.034Z,9.840393
2019-04-25T01:10:13.535Z,9.870605
2019-04-25T01:11:24.041Z,9.830322
2019-04-25T01:12:33.550Z,9.820251
2019-04-25T01:13:43.094Z,9.790039
2019-04-25T01:14:53.697Z,9.759827
2019-04-25T01:16:04.048Z,9.759827
2019-04-25T01:17:12.579Z,9.719543
2019-04-25T01:18:23.239Z,9.719543
2019-04-25T01:19:32.623Z,9.67926
2019-04-25T01:20:43.468Z,9.638977
2019-04-25T01:21:54.764Z,9.618835
2019-04-25T01:23:03.652Z,9.638977
2019-04-25T01:24:11.640Z,9.588623
2019-04-25T01:25:21.173Z,9.54834
2019-04-25T01:26:31.680Z,9.538269
2019-04-25T01:27:41.189Z,9.508057
2019-04-25T01:28:50.707Z,9.497986
2019-04-25T01:30:00.235Z,9.497986
2019-04-25T01:31:09.776Z,9.477844
2019-04-25T01:32:19.302Z,9.457703
2019-04-25T01:33:28.813Z,9.387207
2019-04-25T01:34:38.352Z,9.397278
2019-04-25T01:35:48.464Z,9.356995
2019-04-25T01:36:57.375Z,9.316711
2019-04-25T01:38:06.935Z,9.286499
2019-04-25T01:39:16.419Z,9.276428
2019-04-25T01:40:25.948Z,9.256287
2019-04-25T01:41:36.473Z,9.256287
2019-04-25T01:42:45.974Z,9.276428
2019-04-25T01:43:57.604Z,9.276428
2019-04-25T01:45:05.013Z,9.256287
2019-04-25T01:46:14.830Z,9.276428
2019-04-25T01:47:25.058Z,9.226074
2019-04-25T01:48:34.556Z,9.256287
2019-04-25T01:49:44.099Z,9.226074
2019-04-25T01:50:55.465Z,9.205933
2019-04-25T01:52:05.126Z,9.205933
2019-04-25T01:53:14.677Z,9.185791
2019-04-25T01:54:25.151Z,9.135437
2019-04-25T01:55:34.664Z,9.155579
2019-04-25T01:56:45.185Z,9.125366
2019-04-25T01:57:55.987Z,9.125366
2019-04-25T01:59:05.174Z,9.095154
2019-04-25T02:00:15.685Z,9.125366
2019-04-25T02:01:25.219Z,9.105225
2019-04-25T02:02:34.734Z,9.095154
2019-04-25T02:03:44.372Z,9.095154
2019-04-25T02:04:55.302Z,9.095154
2019-04-25T02:06:05.239Z,9.064941
2019-04-25T02:07:14.787Z,9.0448
2019-04-25T02:08:24.304Z,9.024658
2019-04-25T02:09:34.801Z,8.944092
2019-04-25T02:10:44.324Z,8.913879
2019-04-25T02:11:55.606Z,8.873596
2019-04-25T02:13:05.365Z,8.853455
2019-04-25T02:14:14.876Z,8.853455
2019-04-25T02:15:24.387Z,8.873596
2019-04-25T02:16:35.316Z,8.853455
2019-04-25T02:17:44.385Z,8.853455
2019-04-25T02:18:55.408Z,8.843384
2019-04-25T02:20:04.408Z,8.853455
2019-04-25T02:21:14.905Z,8.853455
2019-04-25T02:22:24.446Z,8.843384
2019-04-25T02:23:34.921Z,8.843384
2019-04-25T02:24:45.443Z,8.843384
2019-04-25T02:26:08.880Z,8.873596
2019-04-25T02:27:06.411Z,8.873596
2019-04-25T02:28:16.002Z,8.853455
2019-04-25T02:29:25.441Z,8.843384
2019-04-25T02:30:35.689Z,8.79303
2019-04-25T02:31:45.460Z,8.782959
2019-04-25T02:32:58.921Z,8.742676
2019-04-25T02:34:08.585Z,8.742676
2019-04-25T02:35:16.940Z,8.712463
2019-04-25T02:36:27.418Z,8.732605
2019-04-25T02:37:36.919Z,8.712463
2019-04-25T02:38:46.418Z,8.692322
2019-04-25T02:39:58.737Z,8.662109
2019-04-25T02:41:08.985Z,8.641968
2019-04-25T02:42:17.117Z,8.631897
2019-04-25T02:43:26.411Z,8.631897
2019-04-25T02:44:35.932Z,8.631897
2019-04-25T02:45:45.436Z,8.641968
2019-04-25T02:46:58.448Z,8.611755
2019-04-25T02:48:07.016Z,8.601685
2019-04-25T02:49:29.247Z,8.581543
2019-04-25T02:50:26.417Z,8.581543
2019-04-25T02:51:35.929Z,8.581543
2019-04-25T02:52:45.451Z,8.561401
2019-04-25T02:53:56.485Z,8.581543
2019-04-25T02:55:10.253Z,8.561401
2019-04-25T02:56:29.711Z,8.581543
2019-04-25T02:57:27.407Z,8.551331
2019-04-25T02:58:36.912Z,8.551331
2019-04-25T02:59:46.415Z,8.531189
2019-04-25T03:01:03.620Z,8.531189
2019-04-25T03:02:09.062Z,8.551331
2019-04-25T03:03:16.887Z,8.551331
2019-04-25T03:04:26.414Z,8.551331
2019-04-25T03:05:35.961Z,8.561401
2019-04-25T03:06:46.434Z,8.551331
2019-04-25T03:07:57.720Z,8.561401
2019-04-25T03:09:09.087Z,8.531189
2019-04-25T03:10:15.964Z,8.511047
2019-04-25T03:11:26.454Z,8.511047
2019-04-25T03:12:36.680Z,8.490906
2019-04-25T03:13:45.479Z,8.460693
2019-04-25T03:14:55.988Z,8.450623
2019-04-25T03:16:09.013Z,8.450623
2019-04-25T03:17:15.961Z,8.450623
2019-04-25T03:18:25.520Z,8.450623
2019-04-25T03:19:36.000Z,8.450623
2019-04-25T03:20:45.508Z,8.440552
2019-04-25T03:21:56.008Z,8.410339
2019-04-25T03:23:08.693Z,8.359985
2019-04-25T03:24:16.884Z,8.359985
2019-04-25T03:25:25.513Z,8.370056
2019-04-25T03:26:39.904Z,8.410339
2019-04-25T03:27:45.513Z,8.410339
2019-04-25T03:28:55.035Z,8.380127
2019-04-25T03:30:09.470Z,8.359985
2019-04-25T03:31:22.318Z,8.339844
2019-04-25T03:32:28.325Z,8.299561
2019-04-25T03:33:38.306Z,8.279419
2019-04-25T03:34:47.519Z,8.279419
2019-04-25T03:35:57.012Z,8.299561
2019-04-25T03:37:07.680Z,8.299561
2019-04-25T03:38:17.011Z,8.279419
2019-04-25T03:39:27.078Z,8.279419
2019-04-25T03:40:36.035Z,8.269348
2019-04-25T03:41:45.594Z,8.259277
2019-04-25T03:42:55.049Z,8.269348
2019-04-25T03:44:06.460Z,8.239136
2019-04-25T03:45:15.097Z,8.229065
2019-04-25T03:46:24.609Z,8.198853
2019-04-25T03:47:34.139Z,8.239136
2019-04-25T03:48:44.139Z,8.229065
2019-04-25T03:49:55.297Z,8.198853
2019-04-25T03:51:04.540Z,8.188782
2019-04-25T03:52:13.800Z,8.178711
2019-04-25T03:53:21.699Z,8.118286
2019-04-25T03:54:31.227Z,8.088074
2019-04-25T03:55:40.765Z,8.057861
2019-04-25T03:56:54.174Z,8.057861
2019-04-25T03:57:59.781Z,8.027649
2019-04-25T03:59:10.606Z,8.027649
2019-04-25T04:00:19.789Z,8.007507
2019-04-25T04:01:29.290Z,7.997437
2019-04-25T04:02:38.808Z,8.007507
2019-04-25T04:03:48.373Z,8.027649
2019-04-25T04:04:57.921Z,8.057861
2019-04-25T04:06:08.874Z,8.088074
2019-04-25T04:07:17.907Z,8.088074
2019-04-25T04:08:27.415Z,8.098145
2019-04-25T04:09:36.934Z,8.098145
2019-04-25T04:10:46.480Z,8.098145
2019-04-25T04:11:56.154Z,8.088074
2019-04-25T04:13:07.161Z,8.088074
2019-04-25T04:14:17.197Z,8.088074
2019-04-25T04:15:26.696Z,8.118286
2019-04-25T04:16:36.227Z,8.088074
2019-04-25T04:17:45.721Z,8.118286
2019-04-25T04:18:55.219Z,8.128357
2019-04-25T04:20:06.763Z,8.148499
2019-04-25T04:21:17.381Z,8.188782
2019-04-25T04:22:25.748Z,8.259277
2019-04-25T04:23:35.263Z,8.269348
2019-04-25T04:24:44.789Z,8.269348
2019-04-25T04:25:54.594Z,8.269348
2019-04-25T04:27:05.630Z,8.259277
2019-04-25T04:28:14.014Z,8.259277
2019-04-25T04:29:25.131Z,8.269348
2019-04-25T04:30:33.767Z,8.299561
2019-04-25T04:31:43.131Z,8.329773
2019-04-25T04:32:51.348Z,8.339844
2019-04-25T04:34:00.868Z,8.329773
2019-04-25T04:35:10.759Z,8.309631
2019-04-25T04:36:19.906Z,8.279419
2019-04-25T04:37:29.423Z,8.299561
2019-04-25T04:38:38.944Z,8.299561
2019-04-25T04:39:48.466Z,8.299561
2019-04-25T04:40:57.956Z,8.329773
2019-04-25T04:42:07.550Z,8.329773
2019-04-25T04:43:17.952Z,8.359985
2019-04-25T04:44:26.471Z,8.380127
2019-04-25T04:45:35.986Z,8.42041
2019-04-25T04:46:46.469Z,8.460693
2019-04-25T04:47:55.968Z,8.511047
2019-04-25T04:49:05.503Z,8.521118
2019-04-25T04:50:16.614Z,8.551331
2019-04-25T04:51:26.540Z,8.581543
2019-04-25T04:52:36.076Z,8.611755
2019-04-25T04:53:45.592Z,8.601685
2019-04-25T04:55:05.151Z,8.611755
2019-04-25T04:56:05.585Z,8.631897
2019-04-25T04:57:26.191Z,8.631897
2019-04-25T04:58:26.557Z,8.601685
2019-04-25T04:59:36.061Z,8.611755
2019-04-25T05:00:45.603Z,8.662109
2019-04-25T05:01:55.127Z,8.702393
2019-04-25T05:03:04.647Z,8.732605
2019-04-25T05:04:16.012Z,8.813171
2019-04-25T05:05:25.643Z,8.823242
2019-04-25T05:06:35.156Z,8.883667
2019-04-25T05:07:44.670Z,8.913879
2019-04-25T05:08:55.192Z,8.954163
2019-04-25T05:10:04.729Z,9.004517
2019-04-25T05:11:15.761Z,9.075012
2019-04-25T05:12:25.717Z,9.135437
2019-04-25T05:13:35.232Z,9.246216
2019-04-25T05:14:44.780Z,9.306641
2019-04-25T05:15:54.303Z,9.367065
2019-04-25T05:17:04.313Z,9.42749
2019-04-25T05:18:15.573Z,9.457703
2019-04-25T05:19:23.904Z,9.497986
2019-04-25T05:20:35.596Z,9.54834
2019-04-25T05:21:45.588Z,9.588623
2019-04-25T05:22:54.901Z,9.649048
2019-04-25T05:24:04.169Z,9.729614
2019-04-25T05:25:16.021Z,9.769897
2019-04-25T05:26:25.094Z,9.860535
2019-04-25T05:27:42.774Z,10.011597
2019-04-25T05:28:45.808Z,10.122375
2019-04-25T05:29:55.321Z,10.202942
2019-04-25T05:31:04.836Z,10.263367
2019-04-25T05:32:15.870Z,10.354004
2019-04-25T05:33:25.921Z,10.404358
2019-04-25T05:34:35.336Z,10.464783
2019-04-25T05:35:44.869Z,10.525208
2019-04-25T05:36:54.369Z,10.585632
2019-04-25T05:38:04.865Z,10.666199
2019-04-25T05:39:17.638Z,10.736694
2019-04-25T05:40:25.852Z,10.787048
2019-04-25T05:41:35.922Z,10.887756
2019-04-25T05:42:44.889Z,10.93811
2019-04-25T05:43:55.395Z,11.038818
2019-04-25T05:45:04.907Z,11.099243
2019-04-25T05:46:15.427Z,11.139526
2019-04-25T05:47:27.067Z,11.18988
2019-04-25T05:48:35.441Z,11.250305
2019-04-25T05:49:44.947Z,11.320801
2019-04-25T05:50:55.454Z,11.401367
2019-04-25T05:52:04.970Z,11.451721
2019-04-25T05:53:14.499Z,11.522217
2019-04-25T05:54:25.660Z,11.632996
2019-04-25T05:55:35.576Z,11.784058
2019-04-25T05:56:45.088Z,11.864624
2019-04-25T05:57:54.614Z,11.965332
2019-04-25T05:59:05.434Z,12.055969
2019-04-25T06:00:15.075Z,12.19696
2019-04-25T06:01:28.846Z,12.277527
2019-04-25T06:02:35.610Z,12.368164
2019-04-25T06:03:46.109Z,12.468872
2019-04-25T06:04:55.617Z,12.56958
2019-04-25T06:06:05.138Z,12.609863
2019-04-25T06:07:14.661Z,12.640076
2019-04-25T06:08:25.808Z,12.680359
2019-04-25T06:09:35.752Z,12.730713
2019-04-25T06:10:45.270Z,12.851562
2019-04-25T06:11:54.673Z,12.952271
2019-04-25T06:13:05.182Z,13.002625
2019-04-25T06:14:14.708Z,13.052979
2019-04-25T06:15:26.167Z,13.123474
2019-04-25T06:16:34.711Z,13.183899
2019-04-25T06:17:44.223Z,13.224182
2019-04-25T06:18:54.954Z,13.314819
2019-04-25T06:20:06.225Z,13.385315
2019-04-25T06:21:14.740Z,13.486023
2019-04-25T06:22:25.591Z,13.536377
2019-04-25T06:23:35.052Z,13.627014
2019-04-25T06:24:45.552Z,13.717651
2019-04-25T06:25:55.151Z,13.82843
2019-04-25T06:27:05.632Z,13.868713
2019-04-25T06:28:15.140Z,13.94928
2019-04-25T06:29:25.964Z,14.039917
2019-04-25T06:30:35.373Z,14.140625
2019-04-25T06:31:44.755Z,14.231262
2019-04-25T06:32:55.261Z,14.352112
2019-04-25T06:34:04.758Z,14.402466
2019-04-25T06:35:15.255Z,14.503174
2019-04-25T06:36:25.775Z,14.593811
2019-04-25T06:37:36.276Z,14.694519
2019-04-25T06:38:45.764Z,14.765015
2019-04-25T06:39:55.278Z,14.845581
2019-04-25T06:41:05.804Z,14.95636
2019-04-25T06:42:15.294Z,15.137634
2019-04-25T06:43:26.699Z,15.238342
2019-04-25T06:44:35.300Z,15.328979
2019-04-25T06:45:44.796Z,15.399475
2019-04-25T06:46:55.303Z,15.490112
2019-04-25T06:48:04.815Z,15.58075
2019-04-25T06:49:14.333Z,15.721741
2019-04-25T06:50:25.977Z,15.84259
2019-04-25T06:51:35.353Z,15.943298
2019-04-25T06:52:45.854Z,16.054077
2019-04-25T06:53:55.389Z,16.205139
2019-04-25T06:55:04.875Z,16.376343
2019-04-25T06:56:15.389Z,16.507263
2019-04-25T06:57:26.920Z,16.577759
2019-04-25T06:58:35.386Z,16.648254
2019-04-25T06:59:44.894Z,16.748962
2019-04-25T07:00:58.525Z,16.869812
2019-04-25T07:02:04.273Z,16.910095
2019-04-25T07:03:15.575Z,16.960449
2019-04-25T07:04:25.434Z,17.09137
2019-04-25T07:05:40.148Z,17.292786
2019-04-25T07:06:45.575Z,17.423706
2019-04-25T07:07:54.391Z,17.393494
2019-04-25T07:09:03.911Z,17.443848
2019-04-25T07:10:13.456Z,17.524414
2019-04-25T07:11:25.068Z,17.645264
2019-04-25T07:12:34.866Z,17.816467
2019-04-25T07:13:44.904Z,18.007812
2019-04-25T07:14:54.401Z,18.148804
2019-04-25T07:16:04.907Z,18.189087
2019-04-25T07:17:14.449Z,18.189087
2019-04-25T07:18:30.010Z,18.22937
2019-04-25T07:19:35.614Z,18.289795
2019-04-25T07:20:45.262Z,18.400574
2019-04-25T07:21:54.428Z,18.501282
2019-04-25T07:23:04.938Z,18.551636
2019-04-25T07:24:17.289Z,18.682556
2019-04-25T07:25:26.255Z,18.662415
2019-04-25T07:26:39.439Z,18.833618
2019-04-25T07:27:44.932Z,18.904114
2019-04-25T07:28:54.463Z,18.994751
2019-04-25T07:30:04.132Z,19.135742
2019-04-25T07:31:14.473Z,19.145813
2019-04-25T07:32:29.491Z,19.23645
2019-04-25T07:33:35.906Z,19.367371
2019-04-25T07:34:44.953Z,19.407654
2019-04-25T07:35:56.495Z,19.397583
2019-04-25T07:37:04.979Z,19.387512
2019-04-25T07:38:14.487Z,19.508362
2019-04-25T07:39:25.602Z,19.629211
2019-04-25T07:40:36.054Z,19.729919
2019-04-25T07:41:44.959Z,19.729919
2019-04-25T07:42:54.498Z,19.73999
2019-04-25T07:44:04.293Z,19.790344
2019-04-25T07:45:14.056Z,19.790344
2019-04-25T07:46:23.372Z,19.880981
2019-04-25T07:47:34.855Z,19.951477
2019-04-25T07:48:43.805Z,20.062256
2019-04-25T07:49:54.086Z,20.001831
2019-04-25T07:51:03.610Z,19.911194
2019-04-25T07:52:13.447Z,19.951477
2019-04-25T07:53:21.083Z,19.86084
2019-04-25T07:54:31.568Z,19.850769
2019-04-25T07:55:41.058Z,19.850769
2019-04-25T07:56:50.567Z,19.951477
2019-04-25T07:58:00.088Z,20.092468
2019-04-25T07:59:09.583Z,20.193176
2019-04-25T08:00:19.097Z,20.283813
2019-04-25T08:01:29.320Z,20.414734
2019-04-25T08:02:39.544Z,20.515442
2019-04-25T08:03:48.618Z,20.716858
2019-04-25T08:04:58.110Z,20.837708
2019-04-25T08:06:07.613Z,20.948486
2019-04-25T08:07:17.120Z,21.059265
2019-04-25T08:08:27.432Z,21.109619
2019-04-25T08:09:36.815Z,21.139832
2019-04-25T08:10:45.623Z,21.069336
2019-04-25T08:11:55.153Z,21.049194
2019-04-25T08:13:04.889Z,21.109619
2019-04-25T08:14:14.452Z,21.11969
2019-04-25T08:15:24.706Z,21.069336
2019-04-25T08:16:35.694Z,21.220398
2019-04-25T08:17:44.712Z,21.37146
2019-04-25T08:18:55.221Z,21.431885
2019-04-25T08:20:04.720Z,21.482239
2019-04-25T08:21:15.366Z,21.774292
2019-04-25T08:22:24.756Z,21.99585
2019-04-25T08:23:37.459Z,22.287903
2019-04-25T08:24:44.768Z,22.539673
2019-04-25T08:25:54.471Z,22.438965
2019-04-25T08:27:04.821Z,22.438965
2019-04-25T08:28:14.319Z,22.449036
2019-04-25T08:29:25.418Z,22.449036
2019-04-25T08:30:36.576Z,22.438965
2019-04-25T08:31:45.292Z,22.650452
2019-04-25T08:32:54.362Z,22.872009
2019-04-25T08:34:04.880Z,23.123779
2019-04-25T08:35:16.030Z,23.063354
2019-04-25T08:36:24.919Z,22.982788
2019-04-25T08:37:36.570Z,22.872009
2019-04-25T08:38:44.940Z,22.902222
2019-04-25T08:39:54.444Z,23.023071
2019-04-25T08:41:04.935Z,23.103638
2019-04-25T08:42:14.762Z,22.88208
2019-04-25T08:43:24.956Z,22.720947
2019-04-25T08:44:35.927Z,22.620239
2019-04-25T08:45:45.934Z,22.620239
2019-04-25T08:46:55.466Z,22.781372
2019-04-25T08:48:04.983Z,22.912292
2019-04-25T08:49:14.516Z,23.063354
2019-04-25T08:50:29.161Z,23.093567
2019-04-25T08:51:36.087Z,22.962646
2019-04-25T08:52:45.019Z,22.932434
2019-04-25T08:53:55.538Z,23.083496
2019-04-25T08:55:05.054Z,23.13385
2019-04-25T08:56:15.544Z,23.234558
2019-04-25T08:57:25.573Z,23.153992
2019-04-25T08:58:36.496Z,23.244629
2019-04-25T08:59:50.681Z,23.496399
2019-04-25T09:01:00.494Z,23.50647
2019-04-25T09:02:05.033Z,23.405762
2019-04-25T09:03:14.543Z,23.607178
2019-04-25T09:04:25.532Z,23.75824
2019-04-25T09:05:37.175Z,23.919373
2019-04-25T09:06:46.049Z,24.110718
2019-04-25T09:07:55.600Z,24.322205
2019-04-25T09:09:07.137Z,24.362488
2019-04-25T09:10:15.169Z,24.473267
2019-04-25T09:11:24.452Z,24.432983
2019-04-25T09:12:35.474Z,24.332275
2019-04-25T09:13:45.141Z,24.281921
2019-04-25T09:14:54.649Z,24.382629
2019-04-25T09:16:05.156Z,24.352417
2019-04-25T09:17:15.685Z,24.584045
2019-04-25T09:18:25.172Z,24.402771
2019-04-25T09:19:36.252Z,24.332275
2019-04-25T09:20:46.712Z,23.979797
2019-04-25T09:21:55.730Z,24.060364
2019-04-25T09:23:05.235Z,24.060364
2019-04-25T09:24:14.755Z,23.989868
2019-04-25T09:25:25.245Z,23.838806
2019-04-25T09:26:36.889Z,23.75824
2019-04-25T09:27:47.046Z,23.879089
2019-04-25T09:28:55.757Z,24.060364
2019-04-25T09:30:06.245Z,24.100647
2019-04-25T09:31:15.754Z,24.050293
2019-04-25T09:32:25.271Z,24.030151
2019-04-25T09:33:36.258Z,24.100647
2019-04-25T09:34:46.264Z,24.080505
2019-04-25T09:35:55.952Z,24.050293
2019-04-25T09:37:05.488Z,24.181213
2019-04-25T09:38:14.990Z,24.181213
2019-04-25T09:39:25.490Z,24.281921
2019-04-25T09:40:36.100Z,24.3927
2019-04-25T09:41:46.471Z,24.453125
2019-04-25T09:42:55.995Z,24.352417
2019-04-25T09:44:05.486Z,24.281921
2019-04-25T09:45:15.223Z,24.241638
2019-04-25T09:46:25.486Z,24.3927
2019-04-25T09:47:36.010Z,24.614258
2019-04-25T09:48:46.781Z,24.876099
2019-04-25T09:49:56.989Z,24.916382
2019-04-25T09:51:06.480Z,24.694824
2019-04-25T09:52:16.021Z,24.694824
2019-04-25T09:53:25.967Z,24.876099
2019-04-25T09:54:36.294Z,24.926453
2019-04-25T09:55:47.140Z,24.76532
2019-04-25T09:56:55.277Z,24.755249
2019-04-25T09:58:04.576Z,24.876099
2019-04-25T09:59:26.472Z,24.946594
2019-04-25T10:00:25.560Z,25.137939
2019-04-25T10:01:36.367Z,25.500488
2019-04-25T10:02:45.582Z,25.591125
2019-04-25T10:03:56.084Z,25.802612
2019-04-25T10:05:05.591Z,25.963745
2019-04-25T10:06:15.106Z,26.185303
2019-04-25T10:07:24.625Z,26.40686
2019-04-25T10:08:34.319Z,26.729126
2019-04-25T10:09:44.782Z,27.001038
2019-04-25T10:10:55.401Z,27.252808
2019-04-25T10:12:04.680Z,26.930542
2019-04-25T10:13:15.199Z,26.90033
2019-04-25T10:14:25.724Z,26.628418
2019-04-25T10:15:35.243Z,26.507568
2019-04-25T10:16:45.746Z,26.437073
2019-04-25T10:17:55.254Z,26.739197
2019-04-25T10:19:04.750Z,27.262878
2019-04-25T10:20:14.591Z,27.474365
2019-04-25T10:21:24.025Z,27.272949
2019-04-25T10:22:33.900Z,27.373657
2019-04-25T10:23:45.307Z,27.333374
2019-04-25T10:25:00.069Z,27.424011
2019-04-25T10:26:03.908Z,27.846985
2019-04-25T10:27:13.948Z,28.199463
2019-04-25T10:28:23.359Z,27.887268
2019-04-25T10:29:39.975Z,28.078613
2019-04-25T10:30:42.985Z,28.068542
2019-04-25T10:31:54.113Z,28.269958
2019-04-25T10:33:01.817Z,28.199463
2019-04-25T10:34:11.347Z,28.118896
2019-04-25T10:35:20.866Z,28.370667
2019-04-25T10:36:30.399Z,27.867126
2019-04-25T10:37:41.056Z,27.635498
2019-04-25T10:39:03.954Z,27.272949
2019-04-25T10:40:00.864Z,27.514648
2019-04-25T10:41:10.359Z,27.595215
2019-04-25T10:42:19.864Z,27.66571
2019-04-25T10:43:29.369Z,27.333374
2019-04-25T10:44:40.136Z,27.514648
2019-04-25T10:45:49.358Z,27.293091
2019-04-25T10:46:58.868Z,27.051392
2019-04-25T10:48:08.398Z,26.839905
2019-04-25T10:49:17.887Z,26.588135
2019-04-25T10:50:27.389Z,26.799622
2019-04-25T10:51:36.902Z,26.990967
2019-04-25T10:52:47.119Z,27.293091
2019-04-25T10:53:55.922Z,27.333374
2019-04-25T10:55:05.422Z,27.887268
2019-04-25T10:56:14.941Z,28.16925
2019-04-25T10:57:26.322Z,28.511658
2019-04-25T10:58:35.277Z,28.592224
2019-04-25T10:59:55.131Z,28.380737
2019-04-25T11:00:55.918Z,28.249817
2019-04-25T11:02:05.438Z,28.380737
2019-04-25T11:03:15.962Z,28.511658
2019-04-25T11:04:26.461Z,28.2901
2019-04-25T11:05:35.959Z,27.998047
2019-04-25T11:06:47.123Z,27.816772
2019-04-25T11:07:56.023Z,28.098755
2019-04-25T11:09:05.515Z,28.300171
2019-04-25T11:10:15.030Z,27.575073
2019-04-25T11:11:24.531Z,27.373657
2019-04-25T11:12:35.026Z,27.051392
2019-04-25T11:13:46.550Z,26.77948
2019-04-25T11:14:56.311Z,26.739197
2019-04-25T11:16:05.550Z,26.507568
2019-04-25T11:17:15.443Z,26.598206
2019-04-25T11:18:25.573Z,26.960754
2019-04-25T11:19:37.225Z,27.353516
2019-04-25T11:20:45.559Z,27.595215
2019-04-25T11:21:56.075Z,26.890259
2019-04-25T11:23:05.583Z,27.001038
2019-04-25T11:24:15.130Z,27.262878
2019-04-25T11:25:24.638Z,27.675781
2019-04-25T11:26:35.130Z,27.494507
2019-04-25T11:27:47.287Z,27.272949
2019-04-25T11:28:56.449Z,27.544861
2019-04-25T11:30:10.563Z,27.635498
2019-04-25T11:31:15.108Z,27.444153
2019-04-25T11:32:24.617Z,27.051392
2019-04-25T11:33:35.122Z,27.303162
2019-04-25T11:34:45.242Z,27.40387
2019-04-25T11:35:56.194Z,27.524719
2019-04-25T11:37:05.825Z,27.444153
2019-04-25T11:38:15.149Z,27.66571
2019-04-25T11:39:24.721Z,27.927551
2019-04-25T11:40:35.236Z,27.867126
2019-04-25T11:41:46.889Z,28.118896
2019-04-25T11:42:56.252Z,28.843994
2019-04-25T11:44:05.774Z,29.156189
2019-04-25T11:45:15.302Z,28.884277
2019-04-25T11:46:24.821Z,28.622437
2019-04-25T11:47:34.333Z,28.511658
2019-04-25T11:48:45.361Z,28.350525
2019-04-25T11:49:55.759Z,28.894348
2019-04-25T11:51:04.875Z,28.350525
2019-04-25T11:52:21.362Z,27.66571
2019-04-25T11:53:25.115Z,27.585144
2019-04-25T11:54:34.438Z,27.887268
2019-04-25T11:55:47.703Z,27.977905
2019-04-25T11:56:56.410Z,28.451233
2019-04-25T11:58:04.924Z,28.592224
2019-04-25T11:59:15.664Z,28.562012
2019-04-25T12:00:24.943Z,28.491516
2019-04-25T12:01:34.438Z,28.380737
2019-04-25T12:02:45.416Z,28.2901
2019-04-25T12:03:56.128Z,28.54187
2019-04-25T12:05:04.998Z,28.249817
2019-04-25T12:06:15.493Z,28.068542
2019-04-25T12:07:25.024Z,28.703003
2019-04-25T12:08:34.539Z,29.115906
2019-04-25T12:09:45.747Z,29.347534
2019-04-25T12:10:55.602Z,29.760437
2019-04-25T12:12:05.700Z,29.236755
2019-04-25T12:13:15.557Z,28.622437
2019-04-25T12:14:25.296Z,28.2901
2019-04-25T12:15:35.570Z,28.451233
2019-04-25T12:16:48.525Z,29.407959
2019-04-25T12:17:57.529Z,29.407959
2019-04-25T12:19:06.060Z,29.307251
2019-04-25T12:20:15.552Z,29.216614
2019-04-25T12:21:25.057Z,28.864136
2019-04-25T12:22:34.570Z,29.266968
2019-04-25T12:23:47.191Z,29.236755
2019-04-25T12:24:55.678Z,28.974915
2019-04-25T12:26:05.093Z,29.015198
2019-04-25T12:27:15.593Z,29.196472
2019-04-25T12:28:25.097Z,28.048401
2019-04-25T12:29:34.616Z,27.857056
2019-04-25T12:30:46.155Z,28.078613
2019-04-25T12:31:56.324Z,27.826843
2019-04-25T12:33:05.323Z,27.353516
2019-04-25T12:34:15.593Z,27.454224
2019-04-25T12:35:25.101Z,27.736206
2019-04-25T12:36:34.616Z,27.957764
2019-04-25T12:37:45.122Z,27.776489
2019-04-25T12:38:55.618Z,27.736206
2019-04-25T12:40:06.082Z,27.66571
2019-04-25T12:41:14.647Z,27.766418
2019-04-25T12:42:24.357Z,27.857056
2019-04-25T12:43:34.662Z,28.66272
2019-04-25T12:44:47.298Z,29.236755
2019-04-25T12:45:56.137Z,29.035339
2019-04-25T12:47:05.155Z,29.035339
2019-04-25T12:48:14.673Z,30.062561
2019-04-25T12:49:24.281Z,30.686951
2019-04-25T12:50:34.700Z,31.18042
2019-04-25T12:51:45.477Z,31.492615
2019-04-25T12:52:55.964Z,31.80481
2019-04-25T12:54:04.234Z,31.93573
2019-04-25T12:55:14.745Z,30.797729
2019-04-25T12:56:25.238Z,28.984985
2019-04-25T12:57:34.736Z,28.219604
2019-04-25T12:58:44.255Z,28.098755
2019-04-25T12:59:55.429Z,28.03833
2019-04-25T13:01:05.249Z,28.219604
2019-04-25T13:02:14.758Z,29.015198
2019-04-25T13:03:24.273Z,29.528809
2019-04-25T13:04:35.025Z,29.216614
2019-04-25T13:05:45.307Z,29.156189
2019-04-25T13:06:55.897Z,29.136047
2019-04-25T13:08:05.304Z,28.843994
2019-04-25T13:09:14.813Z,29.115906
2019-04-25T13:10:24.366Z,28.843994
2019-04-25T13:11:34.805Z,28.078613
2019-04-25T13:12:44.450Z,27.857056
2019-04-25T13:13:54.869Z,28.048401
2019-04-25T13:15:04.396Z,28.390808
2019-04-25T13:16:13.913Z,28.229675
2019-04-25T13:17:24.067Z,28.249817
2019-04-25T13:18:32.947Z,28.108826
2019-04-25T13:19:43.927Z,28.380737
2019-04-25T13:20:54.868Z,28.944702
2019-04-25T13:22:01.483Z,29.317322
2019-04-25T13:23:10.987Z,29.508667
2019-04-25T13:24:20.503Z,29.156189
2019-04-25T13:25:30.015Z,29.438171
2019-04-25T13:26:39.522Z,29.649658